createdAt,value
2019-05-14T00:02:04.301Z,99.80
2019-05-14T00:04:35.467Z,99.90
2019-05-14T00:07:03.845Z,99.90
2019-05-14T00:09:32.351Z,99.90
2019-05-14T00:12:04.960Z,99.90
2019-05-14T00:14:40.072Z,99.90
2019-05-14T00:17:11.293Z,99.90
2019-05-14T00:19:41.669Z,99.90
2019-05-14T00:22:11.806Z,99.90
2019-05-14T00:24:43.650Z,99.90
2019-05-14T00:27:14.877Z,99.90
2019-05-14T00:29:44.885Z,99.90
2019-05-14T00:32:19.013Z,99.90
2019-05-14T00:34:47.425Z,99.90
2019-05-14T00:37:16.053Z,99.90
2019-05-14T00:39:52.112Z,99.90
2019-05-14T00:42:23.198Z,99.90
2019-05-14T00:44:57.689Z,99.90
2019-05-14T00:47:24.399Z,99.90
2019-05-14T00:49:55.227Z,99.90
2019-05-14T00:52:26.406Z,99.90
2019-05-14T00:54:55.552Z,99.90
2019-05-14T00:57:26.650Z,99.90
2019-05-14T00:59:55.039Z,99.90
2019-05-14T01:02:25.979Z,99.90
2019-05-14T01:04:56.481Z,99.90
2019-05-14T01:07:24.864Z,99.90
2019-05-14T01:09:56.245Z,99.90
2019-05-14T01:12:24.660Z,99.90
2019-05-14T01:15:07.228Z,99.90
2019-05-14T01:17:23.145Z,99.90
2019-05-14T01:19:54.001Z,99.90
2019-05-14T01:22:22.430Z,99.90
2019-05-14T01:24:56.642Z,99.90
2019-05-14T01:27:31.721Z,99.90
2019-05-14T01:30:05.771Z,99.90
2019-05-14T01:32:41.955Z,99.90
2019-05-14T01:35:14.777Z,99.90
2019-05-14T01:37:43.404Z,99.90
2019-05-14T01:40:14.358Z,99.90
2019-05-14T01:42:42.735Z,99.90
2019-05-14T01:45:24.265Z,99.90
2019-05-14T01:47:44.369Z,99.90
2019-05-14T01:50:12.817Z,99.90
2019-05-14T01:52:41.742Z,99.90
2019-05-14T01:55:15.566Z,99.90
2019-05-14T01:57:43.967Z,99.90
2019-05-14T02:00:18.729Z,99.90
2019-05-14T02:02:47.125Z,99.90
2019-05-14T02:05:17.216Z,99.90
2019-05-14T02:07:54.162Z,99.90
2019-05-14T02:10:26.630Z,99.90
2019-05-14T02:12:58.000Z,99.90
2019-05-14T02:15:37.198Z,99.90
2019-05-14T02:18:02.300Z,99.90
2019-05-14T02:20:32.135Z,99.90
2019-05-14T02:23:01.796Z,99.90
2019-05-14T02:25:34.582Z,99.90
2019-05-14T02:28:04.858Z,99.90
2019-05-14T02:30:48.123Z,99.90
2019-05-14T02:33:11.249Z,99.90
2019-05-14T02:35:39.951Z,99.90
2019-05-14T02:38:10.832Z,99.90
2019-05-14T02:40:40.922Z,99.90
2019-05-14T02:43:09.717Z,99.90
2019-05-14T02:46:01.946Z,99.90
2019-05-14T02:48:20.201Z,99.90
2019-05-14T02:50:51.624Z,99.90
2019-05-14T02:53:29.675Z,99.90
2019-05-14T02:55:59.484Z,99.90
2019-05-14T02:58:31.094Z,99.90
2019-05-14T03:01:00.556Z,99.90
2019-05-14T03:03:35.159Z,99.90
2019-05-14T03:06:05.432Z,99.90
2019-05-14T03:08:35.461Z,99.90
2019-05-14T03:11:09.696Z,99.90
2019-05-14T03:13:41.529Z,99.90
2019-05-14T03:16:26.606Z,99.90
2019-05-14T03:18:43.615Z,99.90
2019-05-14T03:21:11.996Z,99.90
2019-05-14T03:23:40.483Z,99.90
2019-05-14T03:26:14.961Z,99.90
2019-05-14T03:28:49.885Z,99.90
2019-05-14T03:31:23.122Z,99.90
2019-05-14T03:33:53.068Z,99.90
2019-05-14T03:36:33.485Z,99.90
2019-05-14T03:39:10.180Z,99.90
2019-05-14T03:41:39.674Z,99.90
2019-05-14T03:44:09.884Z,99.90
2019-05-14T03:46:49.450Z,99.90
2019-05-14T03:49:09.547Z,99.90
2019-05-14T03:51:40.686Z,99.90
2019-05-14T03:54:12.561Z,99.90
2019-05-14T03:56:43.491Z,99.90
2019-05-14T03:59:14.896Z,99.90
2019-05-14T04:01:45.233Z,99.90
2019-05-14T04:04:19.390Z,99.90
2019-05-14T04:06:50.664Z,99.90
2019-05-14T04:09:20.986Z,99.90
2019-05-14T04:11:52.693Z,99.90
2019-05-14T04:14:23.009Z,99.90
2019-05-14T04:17:09.292Z,99.90
2019-05-14T04:19:49.555Z,99.90
2019-05-14T04:22:21.634Z,99.90
2019-05-14T04:24:54.414Z,99.90
2019-05-14T04:27:25.440Z,99.90
2019-05-14T04:29:58.979Z,99.90
2019-05-14T04:32:29.415Z,99.90
2019-05-14T04:35:04.509Z,99.90
2019-05-14T04:37:36.013Z,99.90
2019-05-14T04:40:10.048Z,99.90
2019-05-14T04:42:40.501Z,99.90
2019-05-14T04:45:13.144Z,99.90
2019-05-14T04:47:44.239Z,99.90
2019-05-14T04:50:19.827Z,99.90
2019-05-14T04:52:49.092Z,99.90
2019-05-14T04:55:16.458Z,99.90
2019-05-14T04:57:50.023Z,99.90
2019-05-14T05:00:20.282Z,99.90
2019-05-14T05:02:51.754Z,99.90
2019-05-14T05:05:25.721Z,99.90
2019-05-14T05:07:55.741Z,99.90
2019-05-14T05:10:25.803Z,99.90
2019-05-14T05:12:58.593Z,99.90
2019-05-14T05:15:29.729Z,99.90
2019-05-14T05:18:03.908Z,99.90
2019-05-14T05:20:40.102Z,99.90
2019-05-14T05:23:08.742Z,99.90
2019-05-14T05:25:49.188Z,99.90
2019-05-14T05:28:19.021Z,99.90
2019-05-14T05:30:49.528Z,99.90
2019-05-14T05:33:22.169Z,99.90
2019-05-14T05:35:51.319Z,99.90
2019-05-14T05:38:19.968Z,99.90
2019-05-14T05:40:48.746Z,99.90
2019-05-14T05:43:28.395Z,99.90
2019-05-14T05:45:56.230Z,99.90
2019-05-14T05:48:31.149Z,99.90
2019-05-14T05:50:59.558Z,99.90
2019-05-14T05:53:28.711Z,99.90
2019-05-14T05:55:59.243Z,99.90
2019-05-14T05:58:30.701Z,99.90
2019-05-14T06:01:03.437Z,99.90
2019-05-14T06:03:30.463Z,99.90
2019-05-14T06:06:04.226Z,99.90
2019-05-14T06:08:51.951Z,99.90
2019-05-14T06:11:25.230Z,99.90
2019-05-14T06:13:53.630Z,99.90
2019-05-14T06:16:22.287Z,99.90
2019-05-14T06:18:50.683Z,99.90
2019-05-14T06:21:19.525Z,99.90
2019-05-14T06:23:49.696Z,99.90
2019-05-14T06:26:19.601Z,99.90
2019-05-14T06:28:52.573Z,99.90
2019-05-14T06:31:21.041Z,99.90
2019-05-14T06:33:49.681Z,99.90
2019-05-14T06:36:19.432Z,99.90
2019-05-14T06:38:49.363Z,99.90
2019-05-14T06:41:21.418Z,99.90
2019-05-14T06:43:50.108Z,99.00
2019-05-14T06:46:19.268Z,99.30
2019-05-14T06:48:48.896Z,99.90
2019-05-14T06:51:19.869Z,99.30
2019-05-14T06:53:49.890Z,98.40
2019-05-14T06:56:21.788Z,97.50
2019-05-14T06:58:52.694Z,97.40
2019-05-14T07:01:29.200Z,96.90
2019-05-14T07:03:52.893Z,96.60
2019-05-14T07:06:21.538Z,96.50
2019-05-14T07:08:52.650Z,96.50
2019-05-14T07:11:20.092Z,94.80
2019-05-14T07:13:49.171Z,94.60
2019-05-14T07:16:19.865Z,95.70
2019-05-14T07:18:52.708Z,94.30
2019-05-14T07:21:18.781Z,93.30
2019-05-14T07:23:48.988Z,93.00
2019-05-14T07:26:19.771Z,93.10
2019-05-14T07:28:48.906Z,93.10
2019-05-14T07:31:18.777Z,92.90
2019-05-14T07:33:49.356Z,93.10
2019-05-14T07:36:19.625Z,93.40
2019-05-14T07:38:49.958Z,92.40
2019-05-14T07:41:19.246Z,91.90
2019-05-14T07:43:48.767Z,92.80
2019-05-14T07:46:19.132Z,91.70
2019-05-14T07:49:03.889Z,90.50
2019-05-14T07:51:19.046Z,90.70
2019-05-14T07:53:48.821Z,91.60
2019-05-14T07:56:23.009Z,90.90
2019-05-14T07:58:51.542Z,90.90
2019-05-14T08:01:20.504Z,90.10
2019-05-14T08:03:49.190Z,90.70
2019-05-14T08:06:19.053Z,89.90
2019-05-14T08:08:49.723Z,90.80
2019-05-14T08:11:19.099Z,89.40
2019-05-14T08:13:49.854Z,88.60
2019-05-14T08:16:18.783Z,87.60
2019-05-14T08:18:49.215Z,90.00
2019-05-14T08:21:19.313Z,89.90
2019-05-14T08:23:48.635Z,90.50
2019-05-14T08:26:19.062Z,90.50
2019-05-14T08:28:48.836Z,91.10
2019-05-14T08:31:21.220Z,91.90
2019-05-14T08:33:49.624Z,92.40
2019-05-14T08:36:18.779Z,91.60
2019-05-14T08:38:50.158Z,90.10
2019-05-14T08:41:19.824Z,87.80
2019-05-14T08:43:49.012Z,90.00
2019-05-14T08:46:19.261Z,90.50
2019-05-14T08:48:49.555Z,90.70
2019-05-14T08:51:18.713Z,91.10
2019-05-14T08:53:50.439Z,90.30
2019-05-14T08:56:19.142Z,90.60
2019-05-14T08:58:49.414Z,89.00
2019-05-14T09:01:19.969Z,88.30
2019-05-14T09:03:49.460Z,90.40
2019-05-14T09:06:20.125Z,88.60
2019-05-14T09:08:49.545Z,87.60
2019-05-14T09:11:26.131Z,90.20
2019-05-14T09:13:59.377Z,87.50
2019-05-14T09:16:39.483Z,87.90
2019-05-14T09:18:58.630Z,87.30
2019-05-14T09:21:29.458Z,87.10
2019-05-14T09:24:00.106Z,88.20
2019-05-14T09:26:28.627Z,85.00
2019-05-14T09:29:16.928Z,83.50
2019-05-14T09:31:34.053Z,81.30
2019-05-14T09:34:04.962Z,81.50
2019-05-14T09:36:33.357Z,81.30
2019-05-14T09:39:01.930Z,81.80
2019-05-14T09:41:33.232Z,80.30
2019-05-14T09:44:04.185Z,79.00
2019-05-14T09:46:34.178Z,80.90
2019-05-14T09:49:02.639Z,82.70
2019-05-14T09:51:32.827Z,78.40
2019-05-14T09:54:01.251Z,78.20
2019-05-14T09:56:29.637Z,79.20
2019-05-14T09:58:58.812Z,80.40
2019-05-14T10:01:27.800Z,79.20
2019-05-14T10:03:58.987Z,77.50
2019-05-14T10:06:28.440Z,75.90
2019-05-14T10:09:02.273Z,77.60
2019-05-14T10:11:33.419Z,76.00
2019-05-14T10:14:01.930Z,76.40
2019-05-14T10:16:30.431Z,75.40
2019-05-14T10:19:00.147Z,75.00
2019-05-14T10:21:29.299Z,74.10
2019-05-14T10:23:58.451Z,75.70
2019-05-14T10:26:28.867Z,72.80
2019-05-14T10:29:01.017Z,73.60
2019-05-14T10:31:29.413Z,75.80
2019-05-14T10:34:00.763Z,72.80
2019-05-14T10:36:29.989Z,69.00
2019-05-14T10:38:59.203Z,71.10
2019-05-14T10:41:29.020Z,70.00
2019-05-14T10:43:59.503Z,71.80
2019-05-14T10:46:29.202Z,71.60
2019-05-14T10:49:14.645Z,70.70
2019-05-14T10:51:29.153Z,69.80
2019-05-14T10:53:59.354Z,70.80
2019-05-14T10:56:30.815Z,71.10
2019-05-14T10:58:59.207Z,71.50
2019-05-14T11:01:28.511Z,74.10
2019-05-14T11:03:57.789Z,72.10
2019-05-14T11:06:26.177Z,71.00
2019-05-14T11:08:57.511Z,70.40
2019-05-14T11:11:25.910Z,71.40
2019-05-14T11:13:55.945Z,70.30
2019-05-14T11:16:24.348Z,71.70
2019-05-14T11:18:52.729Z,70.90
2019-05-14T11:21:26.463Z,70.50
2019-05-14T11:23:51.284Z,70.60
2019-05-14T11:26:24.832Z,74.10
2019-05-14T11:28:58.527Z,72.60
2019-05-14T11:31:29.459Z,70.30
2019-05-14T11:33:59.871Z,70.20
2019-05-14T11:36:29.288Z,71.60
2019-05-14T11:39:03.046Z,71.40
2019-05-14T11:41:28.698Z,69.80
2019-05-14T11:43:59.312Z,70.50
2019-05-14T11:46:41.738Z,67.80
2019-05-14T11:49:00.766Z,69.50
2019-05-14T11:51:57.859Z,67.90
2019-05-14T11:54:09.514Z,70.40
2019-05-14T11:56:41.840Z,71.00
2019-05-14T11:59:08.877Z,67.60
2019-05-14T12:01:39.241Z,68.00
2019-05-14T12:04:08.890Z,67.90
2019-05-14T12:06:39.059Z,68.40
2019-05-14T12:09:11.844Z,67.60
2019-05-14T12:11:38.695Z,68.70
2019-05-14T12:14:08.973Z,67.10
2019-05-14T12:16:40.180Z,68.10
2019-05-14T12:19:11.664Z,70.00
2019-05-14T12:21:40.070Z,70.00
2019-05-14T12:24:13.791Z,69.10
2019-05-14T12:26:38.820Z,69.70
2019-05-14T12:29:09.954Z,68.90
2019-05-14T12:31:38.704Z,69.10
2019-05-14T12:34:08.066Z,67.40
2019-05-14T12:36:42.700Z,66.60
2019-05-14T12:39:11.125Z,66.00
2019-05-14T12:41:42.670Z,66.50
2019-05-14T12:44:11.128Z,66.20
2019-05-14T12:46:39.529Z,66.80
2019-05-14T12:49:11.744Z,68.90
2019-05-14T12:51:42.986Z,68.80
2019-05-14T12:54:14.759Z,70.20
2019-05-14T12:56:43.176Z,69.00
2019-05-14T12:59:13.201Z,68.40
2019-05-14T13:01:49.188Z,68.50
2019-05-14T13:04:20.118Z,67.90
2019-05-14T13:06:48.472Z,68.00
2019-05-14T13:09:21.736Z,69.30
2019-05-14T13:11:50.113Z,66.70
2019-05-14T13:14:18.775Z,68.10
2019-05-14T13:16:48.713Z,67.60
2019-05-14T13:19:18.985Z,65.40
2019-05-14T13:21:48.940Z,64.50
2019-05-14T13:24:18.117Z,66.60
2019-05-14T13:26:50.602Z,67.00
2019-05-14T13:29:20.627Z,66.70
2019-05-14T13:31:49.724Z,67.00
2019-05-14T13:34:19.641Z,69.10
2019-05-14T13:36:48.922Z,67.80
2019-05-14T13:39:20.389Z,69.00
2019-05-14T13:41:48.787Z,68.60
2019-05-14T13:44:24.565Z,67.70
2019-05-14T13:46:48.599Z,68.50
2019-05-14T13:49:20.067Z,68.00
2019-05-14T13:51:51.263Z,67.70
2019-05-14T13:54:19.655Z,65.70
2019-05-14T13:56:48.365Z,65.00
2019-05-14T13:59:18.800Z,64.30
2019-05-14T14:01:48.700Z,65.60
2019-05-14T14:04:18.454Z,63.70
2019-05-14T14:06:49.069Z,63.20
2019-05-14T14:09:17.602Z,62.50
2019-05-14T14:11:48.136Z,63.50
2019-05-14T14:14:16.078Z,64.20
2019-05-14T14:16:48.772Z,65.30
2019-05-14T14:19:15.030Z,65.00
2019-05-14T14:21:43.369Z,61.60
2019-05-14T14:24:14.450Z,61.90
2019-05-14T14:26:42.840Z,63.60
2019-05-14T14:29:14.398Z,65.70
2019-05-14T14:31:45.791Z,66.50
2019-05-14T14:34:14.186Z,65.20
2019-05-14T14:36:44.215Z,62.80
2019-05-14T14:39:14.250Z,62.60
2019-05-14T14:41:44.524Z,63.20
2019-05-14T14:44:19.041Z,62.40
2019-05-14T14:46:48.388Z,62.50
2019-05-14T14:49:19.035Z,63.60
2019-05-14T14:51:49.127Z,64.70
2019-05-14T14:54:18.761Z,67.20
2019-05-14T14:56:48.868Z,65.90
2019-05-14T14:59:22.904Z,64.10
2019-05-14T15:01:51.302Z,62.70
2019-05-14T15:04:19.769Z,63.80
2019-05-14T15:06:50.938Z,65.30
2019-05-14T15:09:22.821Z,66.10
2019-05-14T15:11:54.193Z,66.40
2019-05-14T15:14:25.547Z,66.60
2019-05-14T15:17:00.152Z,64.40
2019-05-14T15:19:33.141Z,62.50
2019-05-14T15:22:04.263Z,60.10
2019-05-14T15:24:37.363Z,62.20
2019-05-14T15:27:15.303Z,60.10
2019-05-14T15:29:43.465Z,61.50
2019-05-14T15:32:11.922Z,62.70
2019-05-14T15:34:44.382Z,65.20
2019-05-14T15:37:12.774Z,65.70
2019-05-14T15:39:44.070Z,66.30
2019-05-14T15:42:13.950Z,65.50
2019-05-14T15:44:54.490Z,64.80
2019-05-14T15:47:12.936Z,62.60
2019-05-14T15:49:44.341Z,60.40
2019-05-14T15:52:14.382Z,60.80
2019-05-14T15:54:47.237Z,61.30
2019-05-14T15:57:15.936Z,63.00
2019-05-14T15:59:44.314Z,62.70
2019-05-14T16:02:12.966Z,62.90
2019-05-14T16:04:42.998Z,63.10
2019-05-14T16:07:20.956Z,64.50
2019-05-14T16:09:53.417Z,64.00
2019-05-14T16:12:24.669Z,62.50
2019-05-14T16:14:57.422Z,60.50
2019-05-14T16:17:27.846Z,59.80
2019-05-14T16:19:57.564Z,59.00
2019-05-14T16:22:25.952Z,59.40
2019-05-14T16:25:08.855Z,60.30
2019-05-14T16:27:30.242Z,61.40
2019-05-14T16:30:00.259Z,63.00
2019-05-14T16:32:34.849Z,65.30
2019-05-14T16:35:08.902Z,66.30
2019-05-14T16:37:41.526Z,66.40
2019-05-14T16:40:13.663Z,64.80
2019-05-14T16:42:48.315Z,64.20
2019-05-14T16:45:18.955Z,64.00
2019-05-14T16:47:59.999Z,63.70
2019-05-14T16:50:31.656Z,61.90
2019-05-14T16:53:03.897Z,61.90
2019-05-14T16:55:42.694Z,61.40
2019-05-14T16:58:11.785Z,61.90
2019-05-14T17:00:42.351Z,63.50
2019-05-14T17:03:10.804Z,64.80
2019-05-14T17:05:39.185Z,65.40
2019-05-14T17:08:09.806Z,65.70
2019-05-14T17:10:38.800Z,66.50
2019-05-14T17:13:09.063Z,67.10
2019-05-14T17:15:41.095Z,67.50
2019-05-14T17:18:13.157Z,67.10
2019-05-14T17:20:43.100Z,67.90
2019-05-14T17:23:13.374Z,68.40
2019-05-14T17:25:43.475Z,69.00
2019-05-14T17:28:14.581Z,69.20
2019-05-14T17:30:45.817Z,70.20
2019-05-14T17:33:18.746Z,70.30
2019-05-14T17:35:48.790Z,70.40
2019-05-14T17:38:22.418Z,70.80
2019-05-14T17:40:50.826Z,69.30
2019-05-14T17:43:23.279Z,70.00
2019-05-14T17:45:52.071Z,70.00
2019-05-14T17:48:24.805Z,70.30
2019-05-14T17:50:53.215Z,70.70
2019-05-14T17:53:24.258Z,70.60
2019-05-14T17:55:52.642Z,70.30
2019-05-14T17:58:24.177Z,70.20
2019-05-14T18:00:58.302Z,70.40
2019-05-14T18:03:29.008Z,70.70
2019-05-14T18:06:01.113Z,71.00
2019-05-14T18:08:30.113Z,72.20
2019-05-14T18:11:01.815Z,72.20
2019-05-14T18:13:29.977Z,72.40
2019-05-14T18:16:02.786Z,72.80
2019-05-14T18:18:31.263Z,73.40
2019-05-14T18:21:05.919Z,74.20
2019-05-14T18:23:34.301Z,74.50
2019-05-14T18:26:08.677Z,75.60
2019-05-14T18:28:34.453Z,76.80
2019-05-14T18:31:02.845Z,77.20
2019-05-14T18:33:34.317Z,77.50
2019-05-14T18:36:07.293Z,77.90
2019-05-14T18:38:38.874Z,78.80
2019-05-14T18:41:09.732Z,79.20
2019-05-14T18:43:40.337Z,80.10
2019-05-14T18:46:08.726Z,80.40
2019-05-14T18:48:38.761Z,81.30
2019-05-14T18:51:09.879Z,81.70
2019-05-14T18:53:38.529Z,82.20
2019-05-14T18:56:17.477Z,82.80
2019-05-14T18:58:38.857Z,83.30
2019-05-14T19:01:08.615Z,83.70
2019-05-14T19:03:39.698Z,84.00
2019-05-14T19:06:10.300Z,84.70
2019-05-14T19:08:39.505Z,85.80
2019-05-14T19:11:11.928Z,86.30
2019-05-14T19:13:40.316Z,87.10
2019-05-14T19:16:08.711Z,87.50
2019-05-14T19:18:38.597Z,88.00
2019-05-14T19:21:08.832Z,88.10
2019-05-14T19:23:38.424Z,88.50
2019-05-14T19:26:09.409Z,90.00
2019-05-14T19:28:40.557Z,90.20
2019-05-14T19:31:12.065Z,90.30
2019-05-14T19:33:40.965Z,90.50
2019-05-14T19:36:11.016Z,90.80
2019-05-14T19:38:39.413Z,90.80
2019-05-14T19:41:08.890Z,91.20
2019-05-14T19:43:41.338Z,91.30
2019-05-14T19:46:13.036Z,91.60
2019-05-14T19:48:41.412Z,91.80
2019-05-14T19:51:14.125Z,92.00
2019-05-14T19:53:42.461Z,92.50
2019-05-14T19:56:12.481Z,92.90
2019-05-14T19:58:40.871Z,93.40
2019-05-14T20:01:11.965Z,93.90
2019-05-14T20:03:43.366Z,94.20
2019-05-14T20:06:14.667Z,94.60
2019-05-14T20:08:43.057Z,95.00
2019-05-14T20:11:11.448Z,95.40
2019-05-14T20:13:45.650Z,95.90
2019-05-14T20:16:18.306Z,96.60
2019-05-14T20:18:45.801Z,97.50
2019-05-14T20:21:20.031Z,98.20
2019-05-14T20:23:48.423Z,99.20
2019-05-14T20:26:17.784Z,99.90
2019-05-14T20:28:48.321Z,99.90
2019-05-14T20:31:18.167Z,99.90
2019-05-14T20:33:48.678Z,99.90
2019-05-14T20:36:24.371Z,99.90
2019-05-14T20:38:49.074Z,99.90
2019-05-14T20:41:38.730Z,99.90
2019-05-14T20:44:07.458Z,99.90
2019-05-14T20:46:38.816Z,99.90
2019-05-14T20:49:08.804Z,99.90
2019-05-14T20:51:43.362Z,99.90
2019-05-14T20:54:13.401Z,99.90
2019-05-14T20:56:41.796Z,99.90
2019-05-14T20:59:13.207Z,99.90
2019-05-14T21:01:41.591Z,99.90
2019-05-14T21:04:10.303Z,99.90
2019-05-14T21:06:41.481Z,99.90
2019-05-14T21:09:13.084Z,99.90
2019-05-14T21:11:43.015Z,99.90
2019-05-14T21:14:11.650Z,99.90
2019-05-14T21:16:40.037Z,99.90
2019-05-14T21:19:08.645Z,99.90
2019-05-14T21:21:38.584Z,99.90
2019-05-14T21:24:08.888Z,99.90
2019-05-14T21:26:40.618Z,99.90
2019-05-14T21:29:09.018Z,99.90
2019-05-14T21:31:38.471Z,99.90
2019-05-14T21:34:08.136Z,99.90
2019-05-14T21:36:41.201Z,99.90
2019-05-14T21:39:09.894Z,99.90
2019-05-14T21:41:41.252Z,99.90
2019-05-14T21:44:12.581Z,99.90
2019-05-14T21:46:43.147Z,99.90
2019-05-14T21:49:11.559Z,99.90
2019-05-14T21:51:43.719Z,99.90
2019-05-14T21:54:14.749Z,99.90
2019-05-14T21:56:46.108Z,99.90
2019-05-14T21:59:18.908Z,99.90
2019-05-14T22:01:48.778Z,99.90
2019-05-14T22:04:21.721Z,99.90
2019-05-14T22:06:52.583Z,99.90
2019-05-14T22:09:28.477Z,99.90
2019-05-14T22:11:58.297Z,99.90
2019-05-14T22:14:28.334Z,99.90
2019-05-14T22:16:58.414Z,99.90
2019-05-14T22:19:28.694Z,99.90
2019-05-14T22:22:00.195Z,99.90
2019-05-14T22:24:28.812Z,99.90
2019-05-14T22:27:00.714Z,99.90
2019-05-14T22:29:30.098Z,99.90
2019-05-14T22:31:58.750Z,99.90
2019-05-14T22:34:31.794Z,99.90
2019-05-14T22:37:00.414Z,99.90
2019-05-14T22:39:29.256Z,99.90
2019-05-14T22:42:00.238Z,99.90
2019-05-14T22:44:29.199Z,99.90
2019-05-14T22:46:58.752Z,99.90
2019-05-14T22:49:34.055Z,99.90
2019-05-14T22:52:09.543Z,99.90
2019-05-14T22:54:42.618Z,99.90
2019-05-14T22:57:14.075Z,99.90
2019-05-14T22:59:45.406Z,99.90
2019-05-14T23:02:13.801Z,99.90
2019-05-14T23:04:42.183Z,99.90
2019-05-14T23:07:10.583Z,99.90
2019-05-14T23:09:38.968Z,99.90
2019-05-14T23:12:12.384Z,99.90
2019-05-14T23:14:40.815Z,99.90
2019-05-14T23:17:09.202Z,99.90
2019-05-14T23:19:37.610Z,99.90
2019-05-14T23:22:08.885Z,99.90
2019-05-14T23:24:39.124Z,99.90
2019-05-14T23:27:10.340Z,99.90
2019-05-14T23:29:44.995Z,99.90
2019-05-14T23:32:20.633Z,99.90
2019-05-14T23:34:53.649Z,99.90
2019-05-14T23:37:22.033Z,99.90
2019-05-14T23:39:54.069Z,99.90
2019-05-14T23:42:22.445Z,99.90
2019-05-14T23:44:50.842Z,99.90
2019-05-14T23:47:21.989Z,99.90
2019-05-14T23:49:51.782Z,99.90
2019-05-14T23:52:22.846Z,99.90
2019-05-14T23:54:51.475Z,99.90
2019-05-14T23:57:25.525Z,99.90
2019-05-14T23:59:54.143Z,99.90
